Time;durP1;ratioP1;P1;durP2;ratioP2;P2;SDS_P1;SDS_P2;PMS_P1;PMS_P2;Temp;Humidity;BMP_temperature;BMP_pressure;BME280_temperature;BME280_humidity;BME280_pressure;Samples;Min_cycle;Max_cycle;Signal;HPM_P1;HPM_P2
2023/08/12 00:01:38;;;;;;;19.67;18.50;;;21.60;46.30;;;;;;4902264;29;20470;-81
2023/08/12 00:04:14;;;;;;;19.90;18.90;;;21.60;99.90;;;;;;4903634;29;20485;-81
2023/08/12 00:06:53;;;;;;;19.93;18.83;;;21.60;99.90;;;;;;4901563;29;20459;-81
2023/08/12 00:09:26;;;;;;;19.63;18.37;;;21.70;1.00;;;;;;4907213;29;20454;-82
2023/08/12 00:12:18;;;;;;;19.03;18.07;;;21.60;16.80;;;;;;4902774;29;20462;-81
2023/08/12 00:14:56;;;;;;;19.43;18.53;;;21.50;99.90;;;;;;4908593;29;20482;-81
2023/08/12 00:17:41;;;;;;;19.30;18.40;;;21.50;99.90;;;;;;4906350;29;20568;-82
2023/08/12 00:20:29;;;;;;;20.30;19.10;;;21.50;99.90;;;;;;4905755;29;20494;-82
2023/08/12 00:23:04;;;;;;;20.50;19.10;;;21.50;99.90;;;;;;4904026;29;20549;-83
2023/08/12 00:25:50;;;;;;;18.87;17.67;;;21.50;99.90;;;;;;4905229;29;20489;-82
2023/08/12 00:28:42;;;;;;;19.10;18.10;;;21.50;99.90;;;;;;4904279;29;20553;-83
2023/08/12 00:31:24;;;;;;;19.10;18.20;;;21.40;99.90;;;;;;4899794;29;20467;-81
2023/08/12 00:34:04;;;;;;;19.43;18.40;;;21.40;99.90;;;;;;4904024;29;20502;-82
2023/08/12 00:36:42;;;;;;;19.30;18.30;;;21.30;1.00;;;;;;4902322;29;20888;-83
2023/08/12 00:39:19;;;;;;;20.17;18.97;;;21.30;1.00;;;;;;4901298;29;20517;-82
2023/08/12 00:41:56;;;;;;;19.53;18.33;;;21.30;1.00;;;;;;4900092;29;20469;-82
2023/08/12 00:44:37;;;;;;;19.80;18.60;;;21.30;1.00;;;;;;4908233;29;20481;-82
2023/08/12 00:47:16;;;;;;;19.63;18.70;;;21.30;1.00;;;;;;4903043;29;20892;-82
2023/08/12 00:49:57;;;;;;;19.40;18.43;;;21.30;1.00;;;;;;4902435;29;21046;-81
2023/08/12 00:52:33;;;;;;;19.87;18.30;;;21.30;1.00;;;;;;4902981;29;20486;-83
2023/08/12 00:55:19;;;;;;;18.47;17.67;;;21.20;99.90;;;;;;4900545;29;22295;-82
2023/08/12 00:57:57;;;;;;;19.80;18.70;;;21.20;99.90;;;;;;4901991;29;20501;-81
2023/08/12 01:00:41;;;;;;;18.80;17.90;;;21.20;99.90;;;;;;4894722;29;20485;-81
2023/08/12 01:03:13;;;;;;;19.47;18.47;;;21.10;99.90;;;;;;4902457;29;20466;-80
2023/08/12 01:05:49;;;;;;;19.00;18.20;;;21.20;99.90;;;;;;4903240;29;21025;-82
2023/08/12 01:08:27;;;;;;;25.67;18.80;;;21.20;1.00;;;;;;4902534;29;20537;-81
2023/08/12 01:11:19;;;;;;;19.07;18.27;;;21.20;18.70;;;;;;4903186;29;20449;-82
2023/08/12 01:13:56;;;;;;;19.33;18.43;;;21.20;75.30;;;;;;4901455;29;20478;-82
2023/08/12 01:16:46;;;;;;;19.07;18.17;;;21.20;1.00;;;;;;4905431;29;20468;-82
2023/08/12 01:19:43;;;;;;;19.60;18.60;;;21.20;1.00;;;;;;4899585;29;20469;-81
2023/08/12 01:22:15;;;;;;;19.40;18.30;;;21.10;7.50;;;;;;4903959;29;20470;-82
2023/08/12 01:24:56;;;;;;;18.50;17.70;;;21.10;1.00;;;;;;4918241;29;21085;-82
2023/08/12 01:27:34;;;;;;;18.80;17.90;;;21.00;99.90;;;;;;4905217;29;20492;-83
2023/08/12 01:30:11;;;;;;;19.00;18.20;;;21.00;99.90;;;;;;4903241;29;20458;-82
2023/08/12 01:32:56;;;;;;;19.27;18.40;;;21.00;99.90;;;;;;4907425;29;20476;-83
2023/08/12 01:35:37;;;;;;;18.73;17.80;;;21.00;99.90;;;;;;4907217;29;20493;-83
2023/08/12 01:38:32;;;;;;;18.57;17.60;;;21.00;99.90;;;;;;4907220;29;20549;-83
2023/08/12 01:41:11;;;;;;;19.23;18.40;;;21.00;99.90;;;;;;4902404;29;20481;-84
2023/08/12 01:43:55;;;;;;;;;;;;;;;;;;;;;
2023/08/12 01:46:30;;;;;;;19.20;18.30;;;21.00;99.90;;;;;;4904159;29;20473;-83
2023/08/12 01:49:09;;;;;;;18.80;17.83;;;21.00;99.90;;;;;;4910726;29;20469;-83
2023/08/12 01:51:39;;;;;;;18.73;17.77;;;21.00;99.90;;;;;;4900260;29;20458;-83
2023/08/12 01:54:14;;;;;;;18.17;17.37;;;21.00;99.90;;;;;;4903557;29;20474;-83
2023/08/12 01:56:54;;;;;;;19.40;18.50;;;21.00;99.90;;;;;;4902588;29;20462;-82
2023/08/12 01:59:25;;;;;;;19.50;18.60;;;21.00;99.90;;;;;;4908700;29;20983;-82
2023/08/12 02:01:55;;;;;;;18.90;17.90;;;21.10;99.90;;;;;;4906007;29;20864;-82
2023/08/12 02:04:37;;;;;;;19.23;18.33;;;21.00;82.70;;;;;;4907015;29;21016;-82
2023/08/12 02:07:09;;;;;;;19.67;18.67;;;21.00;19.40;;;;;;4905766;29;20480;-83
2023/08/12 02:09:45;;;;;;;20.10;18.87;;;21.00;99.90;;;;;;4905321;29;21217;-83
2023/08/12 02:12:28;;;;;;;19.03;17.93;;;21.00;99.90;;;;;;4921664;29;20461;-82
2023/08/12 02:15:13;;;;;;;18.97;18.07;;;21.10;99.90;;;;;;4906789;29;20485;-82
2023/08/12 02:17:51;;;;;;;20.53;18.97;;;21.10;99.90;;;;;;4906101;29;20461;-83
2023/08/12 02:20:36;;;;;;;19.77;18.73;;;21.10;99.90;;;;;;4907185;29;20572;-84
2023/08/12 02:23:08;;;;;;;19.77;18.87;;;21.10;99.90;;;;;;4905326;29;20517;-83
2023/08/12 02:25:40;;;;;;;19.03;18.17;;;21.10;1.00;;;;;;4918512;29;20508;-84
2023/08/12 02:28:26;;;;;;;19.23;18.40;;;21.00;1.00;;;;;;4904550;29;20466;-82
2023/08/12 02:31:06;;;;;;;19.87;18.77;;;21.00;99.90;;;;;;4901952;29;20522;-83
2023/08/12 02:33:36;;;;;;;19.63;18.73;;;21.10;99.90;;;;;;4907705;29;20694;-81
2023/08/12 02:36:14;;;;;;;19.90;18.67;;;21.00;1.00;;;;;;4905449;29;20466;-82
2023/08/12 02:38:55;;;;;;;20.10;18.80;;;21.00;1.00;;;;;;4901432;29;20477;-83
2023/08/12 02:41:26;;;;;;;19.50;18.53;;;21.00;55.80;;;;;;4904464;29;20575;-82
2023/08/12 02:44:06;;;;;;;19.60;18.63;;;21.00;95.50;;;;;;4905918;29;20580;-82
2023/08/12 02:46:43;;;;;;;20.37;19.07;;;21.00;99.90;;;;;;4908470;29;20466;-80
2023/08/12 02:49:21;;;;;;;20.50;19.00;;;21.10;99.90;;;;;;4907732;29;20586;-81
2023/08/12 02:51:53;;;;;;;19.90;18.80;;;21.10;99.90;;;;;;4905207;29;20800;-81
2023/08/12 02:54:26;;;;;;;18.90;18.00;;;21.10;99.90;;;;;;4908185;29;20518;-81
2023/08/12 02:57:01;;;;;;;19.77;18.70;;;21.00;44.30;;;;;;4903790;29;20486;-83
2023/08/12 02:59:39;;;;;;;19.00;17.80;;;21.10;99.90;;;;;;4902115;29;20458;-84
2023/08/12 03:02:13;;;;;;;19.23;18.23;;;21.10;1.00;;;;;;4902405;29;20488;-83
2023/08/12 03:04:51;;;;;;;18.43;17.53;;;21.00;1.00;;;;;;4903955;29;20494;-82
2023/08/12 03:07:27;;;;;;;18.23;17.43;;;21.00;1.00;;;;;;4904521;29;20689;-82
2023/08/12 03:10:03;;;;;;;18.77;17.87;;;21.00;99.90;;;;;;4904739;29;20466;-83
2023/08/12 03:12:44;;;;;;;18.40;17.50;;;21.00;99.90;;;;;;4904677;29;21145;-83
2023/08/12 03:15:32;;;;;;;18.70;17.90;;;21.00;99.90;;;;;;4902449;29;20493;-82
2023/08/12 03:18:19;;;;;;;18.30;17.50;;;21.00;1.00;;;;;;4912952;29;20557;-83
2023/08/12 03:20:59;;;;;;;18.80;18.00;;;21.00;1.00;;;;;;4905227;29;20509;-82
2023/08/12 03:23:42;;;;;;;19.23;18.27;;;21.00;1.00;;;;;;4904786;29;20576;-83
2023/08/12 03:26:26;;;;;;;18.43;17.40;;;21.10;99.90;;;;;;4917293;29;20565;-82
2023/08/12 03:29:12;;;;;;;18.03;17.13;;;21.10;1.00;;;;;;4901339;29;20462;-82
2023/08/12 03:31:52;;;;;;;18.50;17.60;;;21.10;99.90;;;;;;4905253;29;20524;-82
2023/08/12 03:34:37;;;;;;;19.27;18.20;;;21.10;1.00;;;;;;4907082;29;20529;-82
2023/08/12 03:37:11;;;;;;;17.87;16.97;;;21.10;99.90;;;;;;4906695;29;20462;-83
2023/08/12 03:39:58;;;;;;;18.50;17.60;;;21.20;99.90;;;;;;4901600;29;20457;-82
2023/08/12 03:42:46;;;;;;;18.60;17.70;;;21.20;99.90;;;;;;4901654;29;20493;-82
2023/08/12 03:45:25;;;;;;;18.60;17.70;;;21.20;99.90;;;;;;4906682;29;21152;-81
2023/08/12 03:48:15;;;;;;;19.67;18.57;;;21.20;1.00;;;;;;4899379;29;20461;-82
2023/08/12 03:50:51;;;;;;;17.60;16.90;;;21.10;99.90;;;;;;4904339;29;20461;-81
2023/08/12 03:53:34;;;;;;;19.17;18.17;;;21.10;99.90;;;;;;4901887;29;20470;-81
2023/08/12 03:56:08;;;;;;;18.43;17.43;;;21.20;1.00;;;;;;4900836;29;20473;-82
2023/08/12 03:58:45;;;;;;;18.73;17.63;;;21.20;1.00;;;;;;4903290;29;20460;-82
2023/08/12 04:01:25;;;;;;;18.70;17.70;;;21.20;1.00;;;;;;4902919;29;20490;-82
2023/08/12 04:04:11;;;;;;;19.80;18.60;;;21.20;99.90;;;;;;4900978;29;20587;-82
2023/08/12 04:06:52;;;;;;;19.20;18.30;;;21.10;1.00;;;;;;4901510;29;21071;-82
2023/08/12 04:09:31;;;;;;;18.20;17.40;;;21.10;99.90;;;;;;4899392;29;20497;-82
2023/08/12 04:12:03;;;;;;;19.40;18.50;;;21.10;99.90;;;;;;4904501;29;20445;-82
2023/08/12 04:14:41;;;;;;;18.63;17.83;;;21.10;99.90;;;;;;4902412;29;20490;-82
2023/08/12 04:17:13;;;;;;;18.60;17.70;;;21.20;24.90;;;;;;4902108;29;21222;-81
2023/08/12 04:19:49;;;;;;;18.90;18.03;;;21.20;1.00;;;;;;4903872;29;20883;-81
2023/08/12 04:22:31;;;;;;;19.60;18.53;;;21.20;99.90;;;;;;4903999;29;20500;-82
2023/08/12 04:25:08;;;;;;;18.90;18.10;;;21.20;99.90;;;;;;4916147;29;21134;-82
2023/08/12 04:27:49;;;;;;;18.47;17.57;;;21.20;1.00;;;;;;4905335;29;20469;-82
2023/08/12 04:30:33;;;;;;;19.23;18.17;;;21.20;99.90;;;;;;4896199;29;20472;-82
2023/08/12 04:33:19;;;;;;;18.67;17.70;;;21.20;1.00;;;;;;4903639;29;20462;-82
2023/08/12 04:36:13;;;;;;;18.00;17.30;;;21.20;1.00;;;;;;4902206;29;20466;-82
2023/08/12 04:38:51;;;;;;;19.23;18.37;;;21.20;99.90;;;;;;4901966;29;21026;-82
2023/08/12 04:41:28;;;;;;;18.37;17.57;;;21.10;99.90;;;;;;4898592;29;20517;-82
2023/08/12 04:44:11;;;;;;;19.03;18.17;;;21.10;99.90;;;;;;4901736;29;20485;-81
2023/08/12 04:46:46;;;;;;;19.50;18.60;;;21.10;1.00;;;;;;4899577;29;20469;-83
2023/08/12 04:49:28;;;;;;;18.57;17.77;;;21.00;99.90;;;;;;4899538;29;20459;-83
2023/08/12 04:52:04;;;;;;;19.07;18.20;;;21.00;99.90;;;;;;4899426;29;21311;-83
2023/08/12 04:54:48;;;;;;;19.73;18.83;;;21.10;1.00;;;;;;4901276;29;20481;-82
2023/08/12 04:57:29;;;;;;;19.80;18.80;;;21.10;99.90;;;;;;4899833;29;20552;-80
2023/08/12 05:00:10;;;;;;;19.10;18.00;;;21.10;1.00;;;;;;4902495;29;20450;-81
2023/08/12 05:02:53;;;;;;;19.33;18.33;;;21.10;89.80;;;;;;4901028;29;21062;-81
2023/08/12 05:05:39;;;;;;;19.27;18.30;;;21.10;39.60;;;;;;4897712;29;21128;-80
2023/08/12 05:08:13;;;;;;;18.50;17.70;;;21.10;1.00;;;;;;4901127;29;20912;-83
2023/08/12 05:10:53;;;;;;;19.03;18.13;;;21.10;99.90;;;;;;4902155;29;20469;-81
2023/08/12 05:13:34;;;;;;;20.03;18.97;;;21.10;41.20;;;;;;4900086;29;20465;-81
2023/08/12 05:16:05;;;;;;;19.70;18.50;;;21.20;99.90;;;;;;4902446;29;20468;-83
2023/08/12 05:18:50;;;;;;;19.37;18.37;;;21.20;99.90;;;;;;4901648;29;20456;-81
2023/08/12 05:21:24;;;;;;;21.13;19.40;;;21.10;99.90;;;;;;4898153;29;20465;-83
2023/08/12 05:24:03;;;;;;;19.50;18.60;;;21.20;1.00;;;;;;4900670;29;21013;-82
2023/08/12 05:26:40;;;;;;;19.70;18.60;;;21.20;99.90;;;;;;4895475;29;21010;-82
2023/08/12 05:29:24;;;;;;;19.70;18.73;;;21.20;1.00;;;;;;4898231;29;20465;-82
2023/08/12 05:32:18;;;;;;;19.50;18.60;;;21.30;99.90;;;;;;4899414;29;20535;-82
2023/08/12 05:35:04;;;;;;;20.00;19.00;;;21.20;1.00;;;;;;4898642;29;20557;-82
2023/08/12 05:37:45;;;;;;;19.00;18.20;;;21.20;99.90;;;;;;4900456;29;20470;-82
2023/08/12 05:40:29;;;;;;;20.50;19.50;;;21.20;99.90;;;;;;4898081;29;20476;-81
2023/08/12 05:43:08;;;;;;;19.27;18.47;;;21.30;99.90;;;;;;4901222;29;20901;-82
2023/08/12 05:46:00;;;;;;;19.60;18.70;;;21.30;99.90;;;;;;4893065;29;20502;-81
2023/08/12 05:48:43;;;;;;;19.13;18.33;;;21.30;1.00;;;;;;4901378;29;21220;-82
2023/08/12 05:51:25;;;;;;;18.60;17.80;;;21.40;99.90;;;;;;4897849;29;20458;-82
2023/08/12 05:54:00;;;;;;;18.63;17.83;;;21.40;11.70;;;;;;4902617;29;20481;-80
2023/08/12 05:56:41;;;;;;;19.40;18.50;;;21.40;99.90;;;;;;4900058;29;20466;-80
2023/08/12 05:59:20;;;;;;;19.67;18.80;;;21.40;99.90;;;;;;4899986;29;20554;-81
2023/08/12 06:02:15;;;;;;;19.47;18.57;;;21.50;1.00;;;;;;4893105;29;20472;-80
2023/08/12 06:05:00;;;;;;;19.97;19.07;;;21.50;78.20;;;;;;4900035;29;20531;-82
2023/08/12 06:07:44;;;;;;;19.50;18.60;;;21.50;1.00;;;;;;4902990;29;20473;-82
2023/08/12 06:10:24;;;;;;;19.20;18.20;;;21.60;1.00;;;;;;4903471;29;20687;-83
2023/08/12 06:12:55;;;;;;;20.43;19.40;;;21.70;1.00;;;;;;4897576;29;20541;-83
2023/08/12 06:15:29;;;;;;;19.40;18.60;;;22.00;1.00;;;;;;4902603;29;20486;-82
2023/08/12 06:18:05;;;;;;;19.73;18.83;;;22.30;1.00;;;;;;4902120;29;20812;-83
2023/08/12 06:20:45;;;;;;;20.03;19.03;;;22.50;1.00;;;;;;4906474;29;20461;-82
2023/08/12 06:23:19;;;;;;;19.97;19.07;;;22.50;1.00;;;;;;4905318;29;20470;-82
2023/08/12 06:26:02;;;;;;;19.30;18.50;;;22.40;1.00;;;;;;4901536;29;21195;-82
2023/08/12 06:28:50;;;;;;;19.90;19.10;;;22.40;99.90;;;;;;4903032;29;20461;-81
2023/08/12 06:31:29;;;;;;;19.90;18.90;;;22.40;1.00;;;;;;4906468;29;20568;-82
2023/08/12 06:34:07;;;;;;;;;;;;;;;;;;;;;
2023/08/12 06:36:44;;;;;;;18.90;18.10;;;22.40;99.90;;;;;;4903897;29;20474;-82
2023/08/12 06:39:23;;;;;;;19.73;18.90;;;22.80;1.00;;;;;;4904481;29;20461;-82
2023/08/12 06:41:52;;;;;;;19.07;18.27;;;23.30;99.90;;;;;;4900244;29;20469;-83
2023/08/12 06:44:28;;;;;;;19.73;18.93;;;23.70;1.00;;;;;;4901289;29;20783;-82
2023/08/12 06:47:04;;;;;;;19.77;18.87;;;24.20;99.90;;;;;;4902604;29;20458;-83
2023/08/12 06:49:37;;;;;;;19.10;18.30;;;24.40;99.90;;;;;;4902117;29;20462;-80
2023/08/12 06:55:12;;;;;;;19.57;18.77;;;24.50;23.30;;;;;;5044723;23;20501;-79
2023/08/12 06:57:42;;;;;;;19.30;18.50;;;24.50;1.00;;;;;;4894526;29;20897;-79
2023/08/12 07:00:13;;;;;;;19.87;19.03;;;24.50;28.30;;;;;;4893177;29;20461;-80
2023/08/12 07:02:43;;;;;;;19.80;18.90;;;24.40;1.00;;;;;;4900184;29;20545;-80
2023/08/12 07:05:11;;;;;;;19.00;18.20;;;24.30;1.00;;;;;;4894783;29;20604;-79
2023/08/12 07:07:41;;;;;;;19.07;18.37;;;24.20;58.40;;;;;;4897111;29;20465;-79
2023/08/12 07:10:09;;;;;;;18.50;17.80;;;24.20;45.70;;;;;;4901018;29;21252;-79
2023/08/12 07:12:38;;;;;;;19.07;18.27;;;24.20;48.00;;;;;;4901408;29;20470;-79
2023/08/12 07:15:07;;;;;;;19.50;18.70;;;24.40;99.90;;;;;;4901180;29;20478;-79
2023/08/12 07:17:37;;;;;;;18.83;18.13;;;24.40;68.30;;;;;;4903049;29;20926;-79
2023/08/12 07:20:08;;;;;;;19.33;18.50;;;24.40;10.10;;;;;;4900537;29;20458;-78
2023/08/12 07:22:36;;;;;;;18.93;18.13;;;24.50;6.50;;;;;;4897596;29;20493;-79
2023/08/12 07:25:05;;;;;;;18.87;18.17;;;24.50;1.00;;;;;;4899382;29;20498;-79
2023/08/12 07:27:33;;;;;;;18.33;17.57;;;24.70;1.00;;;;;;4910783;29;20473;-79
2023/08/12 07:30:02;;;;;;;17.50;16.90;;;24.60;1.00;;;;;;4896004;29;20485;-78
2023/08/12 07:32:31;;;;;;;17.97;17.27;;;24.60;1.00;;;;;;4898631;29;20462;-79
2023/08/12 07:35:00;;;;;;;18.50;17.80;;;24.70;1.00;;;;;;4895404;29;20493;-79
2023/08/12 07:37:30;;;;;;;19.07;18.07;;;24.70;1.00;;;;;;4889968;29;21602;-80
2023/08/12 07:39:58;;;;;;;17.77;16.97;;;24.80;1.00;;;;;;4893559;29;20458;-78
2023/08/12 07:42:26;;;;;;;17.77;17.07;;;24.80;1.00;;;;;;4895563;29;20992;-80
2023/08/12 07:44:54;;;;;;;17.63;16.83;;;24.80;1.00;;;;;;4894374;29;20493;-81
2023/08/12 07:47:25;;;;;;;18.23;17.30;;;24.80;1.00;;;;;;4894774;29;20840;-81
2023/08/12 07:49:56;;;;;;;17.67;16.87;;;24.70;1.00;;;;;;4895708;29;20477;-78
2023/08/12 07:52:26;;;;;;;18.10;17.30;;;24.60;1.00;;;;;;4893528;29;20498;-80
2023/08/12 07:54:54;;;;;;;18.10;17.40;;;24.60;1.00;;;;;;4891800;29;20482;-78
2023/08/12 07:57:24;;;;;;;18.27;17.57;;;24.60;1.00;;;;;;4905840;29;20991;-79
2023/08/12 07:59:58;;;;;;;18.27;17.53;;;24.60;1.00;;;;;;4892956;29;20557;-85
2023/08/12 08:02:30;;;;;;;18.50;17.70;;;24.60;1.00;;;;;;4900019;29;21210;-83
2023/08/12 08:05:16;;;;;;;18.10;17.40;;;24.80;1.00;;;;;;4900030;29;20510;-90
2023/08/12 08:08:00;;;;;;;18.27;17.50;;;24.90;1.00;;;;;;4904738;29;20490;-89
2023/08/12 08:10:38;;;;;;;17.17;16.50;;;25.00;1.00;;;;;;4904909;29;21013;-89
2023/08/12 08:13:12;;;;;;;18.20;17.50;;;25.10;1.00;;;;;;4917566;29;20915;-87
2023/08/12 08:15:49;;;;;;;16.67;16.07;;;25.10;1.00;;;;;;4899153;29;20481;-86
2023/08/12 08:18:30;;;;;;;17.33;16.63;;;25.20;1.00;;;;;;4903432;29;20458;-87
2023/08/12 08:21:07;;;;;;;17.03;16.43;;;25.30;1.00;;;;;;4897922;29;20472;-86
2023/08/12 08:23:48;;;;;;;17.30;16.70;;;25.30;1.00;;;;;;4898387;29;21029;-89
2023/08/12 08:26:36;;;;;;;16.50;15.90;;;25.30;1.00;;;;;;4900648;29;20468;-88
2023/08/12 08:29:24;;;;;;;16.70;16.10;;;25.30;1.00;;;;;;4897173;29;20462;-88
2023/08/12 08:32:00;;;;;;;16.77;16.00;;;25.40;99.90;;;;;;4900859;29;20470;-88
2023/08/12 08:34:40;;;;;;;17.00;16.40;;;25.40;99.90;;;;;;4902722;29;21011;-88
2023/08/12 08:37:14;;;;;;;17.60;16.90;;;25.50;99.90;;;;;;4898838;29;20839;-87
2023/08/12 08:40:01;;;;;;;16.90;16.10;;;25.60;99.90;;;;;;4902917;29;20469;-88
2023/08/12 08:42:52;;;;;;;17.27;16.57;;;25.70;99.90;;;;;;4903707;29;20482;-88
2023/08/12 08:45:26;;;;;;;16.23;15.73;;;25.80;99.90;;;;;;4899824;29;20488;-88
2023/08/12 08:48:10;;;;;;;16.40;15.87;;;25.80;99.90;;;;;;4898650;29;20540;-89
2023/08/12 08:51:01;;;;;;;16.10;15.50;;;25.90;99.90;;;;;;4894169;29;20458;-90
2023/08/12 08:53:42;;;;;;;16.87;16.27;;;25.90;99.90;;;;;;4897501;29;20995;-89
2023/08/12 08:56:36;;;;;;;16.50;15.90;;;25.90;99.90;;;;;;4896617;29;20493;-83
2023/08/12 08:59:24;;;;;;;16.40;15.70;;;26.00;99.90;;;;;;4897728;29;20470;-86
2023/08/12 09:01:59;;;;;;;15.80;15.10;;;26.00;99.90;;;;;;4896883;29;21021;-86
2023/08/12 09:04:36;;;;;;;16.37;15.87;;;26.10;99.90;;;;;;4902834;29;21038;-87
2023/08/12 09:07:10;;;;;;;16.10;15.60;;;26.10;99.90;;;;;;4903090;29;20465;-87
2023/08/12 09:09:48;;;;;;;15.40;14.90;;;26.20;99.90;;;;;;4893713;29;21155;-87
2023/08/12 09:12:27;;;;;;;16.73;16.00;;;26.20;99.90;;;;;;4897133;29;21067;-87
2023/08/12 09:15:09;;;;;;;16.23;15.73;;;26.20;99.90;;;;;;4900987;29;20473;-87
2023/08/12 09:17:55;;;;;;;16.27;15.77;;;26.30;99.90;;;;;;4908477;29;20450;-86
2023/08/12 09:20:28;;;;;;;15.87;15.37;;;26.40;99.90;;;;;;4898655;29;20562;-86
2023/08/12 09:22:59;;;;;;;16.50;15.80;;;26.60;99.90;;;;;;4897437;29;20466;-86
2023/08/12 09:25:38;;;;;;;16.85;16.25;;;26.50;99.90;;;;;;4914580;29;20462;-87
2023/08/12 09:28:18;;;;;;;16.10;15.50;;;26.70;99.90;;;;;;4899534;29;20672;-87
2023/08/12 09:30:53;;;;;;;16.93;16.10;;;26.60;99.90;;;;;;4899525;29;20540;-87
2023/08/12 09:33:32;;;;;;;16.87;16.27;;;26.60;99.90;;;;;;4899364;29;20462;-85
2023/08/12 09:36:06;;;;;;;17.30;16.60;;;26.50;99.90;;;;;;4899755;29;20849;-82
2023/08/12 09:38:37;;;;;;;17.10;16.30;;;26.50;99.90;;;;;;4901213;29;20484;-85
2023/08/12 09:41:19;;;;;;;17.00;16.00;;;26.50;99.90;;;;;;4895328;29;21017;-87
2023/08/12 09:43:49;;;;;;;16.73;16.03;;;26.40;99.90;;;;;;4898303;29;20469;-88
2023/08/12 09:46:27;;;;;;;17.43;16.53;;;26.30;99.90;;;;;;4895041;29;20609;-89
2023/08/12 09:49:04;;;;;;;17.07;16.33;;;26.20;99.90;;;;;;4898208;29;20469;-87
2023/08/12 09:51:39;;;;;;;17.07;16.37;;;26.20;99.90;;;;;;4898928;29;20466;-88
2023/08/12 09:54:13;;;;;;;17.07;16.40;;;26.20;99.90;;;;;;4900399;29;20486;-89
2023/08/12 09:56:56;;;;;;;17.53;16.73;;;26.10;99.90;;;;;;4910222;29;20473;-85
2023/08/12 09:59:31;;;;;;;17.00;16.40;;;26.10;99.90;;;;;;4901315;29;20466;-86
2023/08/12 10:02:07;;;;;;;17.47;16.43;;;26.10;99.90;;;;;;4896513;29;20469;-87
2023/08/12 10:04:43;;;;;;;17.30;16.40;;;26.00;99.90;;;;;;4904911;29;20983;-87
2023/08/12 10:07:18;;;;;;;17.07;16.27;;;26.10;99.90;;;;;;4903285;29;20461;-87
2023/08/12 10:09:55;;;;;;;16.50;15.80;;;26.10;99.90;;;;;;4901243;29;20466;-84
2023/08/12 10:12:37;;;;;;;16.67;16.03;;;26.10;99.90;;;;;;4904499;29;20485;-87
2023/08/12 10:15:14;;;;;;;16.77;16.10;;;26.10;99.90;;;;;;4923613;29;20485;-89
2023/08/12 10:17:50;;;;;;;17.27;16.57;;;26.10;99.90;;;;;;4913268;29;20466;-88
2023/08/12 10:20:23;;;;;;;16.90;16.20;;;26.10;99.90;;;;;;4902981;29;20475;-86
2023/08/12 10:22:53;;;;;;;16.13;15.60;;;26.20;99.90;;;;;;4904068;29;20458;-88
2023/08/12 10:25:23;;;;;;;17.00;16.20;;;26.20;99.90;;;;;;4901354;29;20848;-88
2023/08/12 10:27:56;;;;;;;17.17;16.57;;;26.30;99.90;;;;;;4913761;29;20536;-86
2023/08/12 10:30:33;;;;;;;17.50;16.80;;;26.30;99.90;;;;;;4898945;29;20473;-86
2023/08/12 10:33:01;;;;;;;17.67;16.97;;;26.40;99.90;;;;;;4901607;29;20498;-87
2023/08/12 10:35:43;;;;;;;17.03;16.33;;;26.40;99.90;;;;;;4904110;29;20486;-88
2023/08/12 10:38:23;;;;;;;17.40;16.70;;;26.30;99.90;;;;;;4906077;29;21095;-90
2023/08/12 10:41:19;;;;;;;17.40;16.60;;;26.30;99.90;;;;;;4906489;29;20461;-87
2023/08/12 10:43:54;;;;;;;16.43;15.73;;;26.40;99.90;;;;;;4905249;29;20474;-88
2023/08/12 10:46:37;;;;;;;16.20;15.67;;;26.50;99.90;;;;;;4907752;29;20509;-88
2023/08/12 10:49:10;;;;;;;16.47;15.87;;;26.60;99.90;;;;;;4902353;29;20505;-88
2023/08/12 10:51:48;;;;;;;16.67;15.73;;;26.70;99.90;;;;;;4897765;29;21134;-88
2023/08/12 10:54:21;;;;;;;16.53;16.03;;;26.70;99.90;;;;;;4900153;29;20489;-88
2023/08/12 10:57:12;;;;;;;17.00;16.30;;;26.80;99.90;;;;;;4902258;29;20501;-86
2023/08/12 10:59:57;;;;;;;16.80;16.20;;;26.80;99.90;;;;;;4904229;29;20485;-88
2023/08/12 11:02:32;;;;;;;16.40;15.80;;;26.70;99.90;;;;;;4901495;29;20478;-88
2023/08/12 11:05:11;;;;;;;15.07;14.50;;;26.70;99.90;;;;;;4896938;29;20498;-87
2023/08/12 11:07:57;;;;;;;15.63;14.93;;;26.80;99.90;;;;;;4898981;29;20501;-86
2023/08/12 11:10:33;;;;;;;15.27;14.53;;;26.80;99.90;;;;;;4896741;29;20489;-88
2023/08/12 11:13:03;;;;;;;15.60;15.03;;;27.00;99.90;;;;;;4896383;29;20971;-85
2023/08/12 11:15:36;;;;;;;15.80;15.20;;;27.10;99.90;;;;;;4899910;29;20496;-85
2023/08/12 11:18:11;;;;;;;16.70;15.70;;;27.20;99.90;;;;;;4899601;28;20497;-85
2023/08/12 11:21:49;;;;;;;16.20;15.50;;;27.20;99.90;;;;;;4896548;29;21317;-84
2023/08/12 11:24:33;;;;;;;16.60;15.60;;;27.20;99.90;;;;;;4890097;29;20481;-84
2023/08/12 11:27:28;;;;;;;16.23;15.53;;;27.10;99.90;;;;;;4897375;29;20486;-87
2023/08/12 11:29:58;;;;;;;17.00;16.37;;;27.10;99.90;;;;;;4899630;28;20477;-85
2023/08/12 11:32:32;;;;;;;17.97;16.60;;;27.10;99.90;;;;;;4899497;29;20481;-83
2023/08/12 11:35:16;;;;;;;16.43;15.83;;;27.10;99.90;;;;;;4899628;29;20540;-85
2023/08/12 11:37:47;;;;;;;16.80;16.10;;;27.20;99.90;;;;;;4898682;29;20473;-85
2023/08/12 11:40:29;;;;;;;17.17;16.37;;;27.20;99.90;;;;;;4902953;29;20597;-85
2023/08/12 11:43:04;;;;;;;16.70;16.10;;;27.30;99.90;;;;;;4909361;29;20751;-87
2023/08/12 11:45:44;;;;;;;17.10;16.40;;;27.30;99.90;;;;;;4911776;29;21091;-87
2023/08/12 11:48:19;;;;;;;17.40;16.50;;;27.30;99.90;;;;;;4904262;29;20458;-83
2023/08/12 11:50:59;;;;;;;17.13;16.33;;;27.40;99.90;;;;;;4902447;29;20475;-85
2023/08/12 11:53:31;;;;;;;16.73;16.03;;;27.30;99.90;;;;;;4903356;29;21128;-86
2023/08/12 11:56:09;;;;;;;16.87;16.17;;;27.40;99.90;;;;;;4903705;29;20518;-85
2023/08/12 11:58:41;;;;;;;18.87;17.40;;;27.40;99.90;;;;;;4919145;29;20862;-85
2023/08/12 12:01:23;;;;;;;17.53;16.83;;;27.30;99.90;;;;;;4898807;29;20971;-84
2023/08/12 12:03:53;;;;;;;17.23;16.43;;;27.20;99.90;;;;;;4895996;29;20533;-87
2023/08/12 12:06:38;;;;;;;17.33;16.53;;;27.10;99.90;;;;;;4900625;29;20885;-85
2023/08/12 12:09:13;;;;;;;16.40;15.80;;;27.10;99.90;;;;;;4898279;29;21057;-87
2023/08/12 12:11:52;;;;;;;17.43;16.67;;;27.00;99.90;;;;;;4899410;29;20606;-85
2023/08/12 12:14:23;;;;;;;16.30;15.70;;;27.00;99.90;;;;;;4901649;29;20486;-84
2023/08/12 12:16:56;;;;;;;17.10;16.20;;;26.90;99.90;;;;;;4900169;29;20461;-84
2023/08/12 12:19:31;;;;;;;17.33;16.60;;;26.80;99.90;;;;;;4896166;29;20481;-83
2023/08/12 12:22:05;;;;;;;16.93;16.33;;;26.60;1.00;;;;;;4901082;29;20901;-85
2023/08/12 12:24:48;;;;;;;17.63;16.77;;;26.40;99.90;;;;;;4900433;29;20474;-89
2023/08/12 12:27:22;;;;;;;17.90;16.90;;;26.20;99.90;;;;;;4901943;29;20700;-87
2023/08/12 12:29:50;;;;;;;17.43;16.63;;;26.10;1.00;;;;;;4902267;29;20469;-87
2023/08/12 12:32:23;;;;;;;19.00;18.00;;;26.00;1.00;;;;;;4901545;29;20517;-85
2023/08/12 12:34:57;;;;;;;17.80;17.00;;;25.90;1.00;;;;;;4899619;29;20481;-88
2023/08/12 12:37:33;;;;;;;17.03;16.27;;;25.80;1.00;;;;;;4899156;29;20469;-86
2023/08/12 12:40:06;;;;;;;16.60;16.00;;;25.70;1.00;;;;;;4902033;29;20458;-85
2023/08/12 12:42:39;;;;;;;17.27;16.57;;;25.60;1.00;;;;;;4903986;29;20457;-84
2023/08/12 12:45:15;;;;;;;17.37;16.50;;;25.50;99.90;;;;;;4896397;29;20580;-85
2023/08/12 12:48:12;;;;;;;16.97;16.07;;;25.50;99.90;;;;;;4899008;29;20478;-84
2023/08/12 12:50:47;;;;;;;16.67;15.97;;;25.40;1.00;;;;;;4903955;29;20517;-85
2023/08/12 12:53:30;;;;;;;16.63;15.93;;;25.30;1.00;;;;;;4899071;29;20460;-87
2023/08/12 12:56:22;;;;;;;17.43;16.53;;;25.30;91.50;;;;;;4900572;29;20517;-84
2023/08/12 12:58:52;;;;;;;17.23;16.43;;;25.30;99.90;;;;;;4898521;29;20465;-86
2023/08/12 13:01:26;;;;;;;16.60;16.00;;;25.30;1.00;;;;;;4901344;29;20457;-86
2023/08/12 13:04:05;;;;;;;17.20;16.43;;;25.30;1.00;;;;;;4898381;29;20454;-87
2023/08/12 13:06:37;;;;;;;17.00;16.20;;;25.20;1.00;;;;;;4901106;29;20482;-88
2023/08/12 13:09:21;;;;;;;;;;;;;;;;;;;;;
2023/08/12 13:11:56;;;;;;;18.90;17.80;;;25.10;99.90;;;;;;4900286;29;20462;-88
2023/08/12 13:14:30;;;;;;;20.57;19.53;;;25.00;99.90;;;;;;4900634;29;21100;-85
2023/08/12 13:17:07;;;;;;;17.97;17.17;;;24.90;1.00;;;;;;4898272;29;20533;-87
2023/08/12 13:19:38;;;;;;;17.70;16.90;;;24.90;99.90;;;;;;4916200;28;20466;-86
2023/08/12 13:22:11;;;;;;;17.67;16.87;;;24.90;1.00;;;;;;4904198;29;20461;-85
2023/08/12 13:24:50;;;;;;;18.80;17.67;;;24.90;99.90;;;;;;4902096;29;20519;-84
2023/08/12 13:27:29;;;;;;;17.90;17.20;;;24.90;99.90;;;;;;4903096;29;20513;-87
2023/08/12 13:29:58;;;;;;;18.10;17.07;;;24.90;1.00;;;;;;4903936;29;20460;-89
2023/08/12 13:32:34;;;;;;;18.10;17.30;;;24.90;1.00;;;;;;4909039;29;20490;-87